Time;durP1;ratioP1;P1;durP2;ratioP2;P2;SDS_P1;SDS_P2;PMS_P1;PMS_P2;Temp;Humidity;BMP_temperature;BMP_pressure;BME280_temperature;BME280_humidity;BME280_pressure;Samples;Min_cycle;Max_cycle;Signal;HPM_P1;HPM_P2
2023/02/27 00:00:51;;;;;;;11.60;11.30;;;21.40;45.30;;;;;;4996833;28;20537;-62
2023/02/27 00:03:18;;;;;;;11.10;10.80;;;21.40;45.30;;;;;;4996182;28;20890;-62
2023/02/27 00:05:45;;;;;;;10.63;10.33;;;21.40;45.30;;;;;;4996256;28;20533;-62
2023/02/27 00:08:12;;;;;;;11.17;10.97;;;21.40;45.30;;;;;;4995792;28;20545;-62
2023/02/27 00:10:39;;;;;;;10.40;10.10;;;21.40;45.30;;;;;;4995854;28;20549;-62
2023/02/27 00:13:07;;;;;;;10.93;10.63;;;21.40;45.30;;;;;;4996187;28;20534;-62
2023/02/27 00:15:36;;;;;;;11.37;11.07;;;21.40;45.30;;;;;;4996003;28;20573;-62
2023/02/27 00:18:03;;;;;;;11.07;10.77;;;21.30;45.20;;;;;;4995588;28;20462;-63
2023/02/27 00:20:31;;;;;;;11.07;10.67;;;21.40;45.30;;;;;;4995844;28;20538;-62
2023/02/27 00:22:57;;;;;;;11.00;10.70;;;21.30;45.30;;;;;;4995542;28;20526;-62
2023/02/27 00:25:24;;;;;;;11.30;11.00;;;21.30;45.30;;;;;;4995379;28;20542;-61
2023/02/27 00:27:52;;;;;;;10.63;10.33;;;21.30;45.20;;;;;;4995195;28;20462;-62
2023/02/27 00:30:21;;;;;;;11.13;10.83;;;21.30;45.20;;;;;;4995353;28;20522;-62
2023/02/27 00:32:47;;;;;;;11.67;11.27;;;21.30;45.30;;;;;;4995553;28;20879;-63
2023/02/27 00:35:14;;;;;;;10.70;10.40;;;21.30;45.20;;;;;;4995999;28;20895;-63
2023/02/27 00:37:41;;;;;;;10.80;10.53;;;21.30;45.30;;;;;;4995654;28;20888;-63
2023/02/27 00:40:10;;;;;;;10.90;10.60;;;21.30;45.20;;;;;;4996060;28;20879;-62
2023/02/27 00:42:37;;;;;;;11.27;10.87;;;21.20;45.20;;;;;;4995602;28;20455;-63
2023/02/27 00:45:05;;;;;;;10.20;9.90;;;21.20;45.20;;;;;;4995174;28;20562;-62
2023/02/27 00:47:34;;;;;;;11.63;11.33;;;21.20;45.30;;;;;;4995039;28;20485;-61
2023/02/27 00:50:01;;;;;;;10.90;10.60;;;21.20;45.30;;;;;;4994617;28;20506;-62
2023/02/27 00:52:28;;;;;;;11.70;11.40;;;21.20;45.20;;;;;;4995118;28;20478;-62
2023/02/27 00:54:55;;;;;;;10.87;10.57;;;21.20;45.30;;;;;;4994815;28;20570;-62
2023/02/27 00:57:22;;;;;;;10.83;10.53;;;21.20;45.20;;;;;;4995486;28;20493;-62
2023/02/27 00:59:48;;;;;;;11.03;10.73;;;21.20;45.20;;;;;;4995557;28;20549;-62
2023/02/27 01:02:15;;;;;;;9.60;9.40;;;21.20;45.20;;;;;;4995732;28;20535;-62
2023/02/27 01:04:44;;;;;;;9.53;9.33;;;21.20;45.30;;;;;;4995413;28;20506;-63
2023/02/27 01:07:11;;;;;;;11.10;10.80;;;21.20;45.40;;;;;;4995899;28;20535;-62
2023/02/27 01:09:38;;;;;;;10.80;10.50;;;21.20;45.40;;;;;;4995481;28;20570;-63
2023/02/27 01:12:05;;;;;;;10.63;10.23;;;21.20;45.40;;;;;;4995395;28;20530;-63
2023/02/27 01:14:32;;;;;;;11.60;11.30;;;21.20;45.40;;;;;;4995091;28;20570;-62
2023/02/27 01:16:59;;;;;;;10.63;10.40;;;21.20;45.40;;;;;;4995414;28;20533;-62
2023/02/27 01:19:26;;;;;;;10.67;10.37;;;21.10;45.30;;;;;;4995536;28;20545;-62
2023/02/27 01:21:54;;;;;;;9.80;9.60;;;21.10;45.30;;;;;;4995318;28;20513;-62
2023/02/27 01:24:21;;;;;;;10.83;10.53;;;21.10;45.30;;;;;;4995522;28;20486;-62
2023/02/27 01:26:48;;;;;;;10.90;10.50;;;21.10;45.30;;;;;;4995602;28;20482;-62
2023/02/27 01:29:15;;;;;;;10.90;10.60;;;21.10;45.30;;;;;;4995355;28;20553;-62
2023/02/27 01:31:42;;;;;;;11.17;10.87;;;21.10;45.40;;;;;;4995336;28;20542;-62
2023/02/27 01:34:09;;;;;;;11.10;10.80;;;21.10;45.30;;;;;;4995388;28;20562;-62
2023/02/27 01:36:36;;;;;;;11.87;11.53;;;21.10;45.30;;;;;;4995511;28;20478;-63
2023/02/27 01:39:04;;;;;;;11.30;11.00;;;21.10;45.50;;;;;;4994994;28;20554;-63
2023/02/27 01:41:31;;;;;;;11.20;10.97;;;21.10;45.30;;;;;;4995356;28;20526;-62
2023/02/27 01:44:00;;;;;;;11.23;10.93;;;21.10;45.40;;;;;;4994949;28;20533;-63
2023/02/27 01:46:28;;;;;;;11.13;10.83;;;21.10;45.90;;;;;;4995522;28;20531;-63
2023/02/27 01:48:58;;;;;;;11.00;10.70;;;21.10;45.40;;;;;;4996555;28;20490;-64
2023/02/27 01:51:29;;;;;;;11.40;11.10;;;21.00;45.20;;;;;;4998078;28;20989;-63
2023/02/27 01:53:58;;;;;;;10.83;10.53;;;21.00;45.30;;;;;;4997060;28;20478;-63
2023/02/27 01:56:29;;;;;;;10.83;10.53;;;21.00;45.30;;;;;;5001305;28;20557;-63
2023/02/27 01:58:59;;;;;;;10.10;9.90;;;21.00;45.30;;;;;;5000171;28;20494;-63
2023/02/27 02:01:27;;;;;;;11.43;11.13;;;21.00;45.30;;;;;;4997231;28;20868;-62
2023/02/27 02:04:00;;;;;;;10.97;10.67;;;21.00;45.40;;;;;;4994959;28;20810;-62
2023/02/27 02:06:31;;;;;;;10.57;10.27;;;21.00;45.30;;;;;;4997260;28;20518;-63
2023/02/27 02:08:59;;;;;;;10.33;10.03;;;21.00;45.20;;;;;;4994285;28;20563;-62
2023/02/27 02:11:28;;;;;;;10.60;10.30;;;21.00;45.30;;;;;;4994695;28;20530;-62
2023/02/27 02:13:57;;;;;;;10.50;10.20;;;21.00;45.30;;;;;;5001143;28;20464;-64
2023/02/27 02:16:44;;;;;;;11.43;11.13;;;21.00;45.30;;;;;;4997449;28;20514;-63
2023/02/27 02:19:38;;;;;;;11.20;10.90;;;20.90;45.20;;;;;;4994920;28;21034;-62
2023/02/27 02:22:44;;;;;;;10.80;10.50;;;21.00;45.40;;;;;;4987301;28;20538;-63
2023/02/27 02:25:47;;;;;;;10.37;10.07;;;20.90;45.20;;;;;;4993762;28;20530;-62
2023/02/27 02:28:30;;;;;;;10.60;10.30;;;21.00;45.40;;;;;;4976603;28;20482;-62
2023/02/27 02:31:27;;;;;;;11.10;10.70;;;20.90;45.30;;;;;;4993449;28;20537;-62
2023/02/27 02:34:23;;;;;;;10.87;10.57;;;20.90;45.20;;;;;;4993416;28;20545;-62
2023/02/27 02:37:29;;;;;;;10.50;10.30;;;20.90;45.30;;;;;;4978722;28;20569;-62
2023/02/27 02:40:10;;;;;;;9.90;9.63;;;20.90;45.20;;;;;;4993394;28;21009;-63
2023/02/27 02:42:42;;;;;;;10.10;9.83;;;20.90;45.30;;;;;;4993812;28;20534;-63
2023/02/27 02:45:15;;;;;;;10.03;9.73;;;20.90;45.40;;;;;;4993437;28;20451;-62
2023/02/27 02:47:55;;;;;;;10.47;10.17;;;20.80;45.30;;;;;;4993745;28;20795;-63
2023/02/27 02:50:28;;;;;;;10.27;9.97;;;20.90;45.40;;;;;;4993090;28;20870;-63
2023/02/27 02:53:02;;;;;;;10.03;9.73;;;20.80;45.20;;;;;;4994111;28;21024;-63
2023/02/27 02:55:34;;;;;;;10.83;10.53;;;20.80;45.20;;;;;;4994489;28;20572;-63
2023/02/27 02:58:07;;;;;;;10.40;10.10;;;20.90;45.30;;;;;;4995590;28;20554;-63
2023/02/27 03:00:37;;;;;;;10.30;10.00;;;20.80;45.20;;;;;;4995963;28;20530;-64
2023/02/27 03:03:11;;;;;;;9.97;9.77;;;20.80;45.30;;;;;;4995653;28;20478;-64
2023/02/27 03:05:43;;;;;;;9.57;9.37;;;20.80;45.20;;;;;;4995608;28;20530;-63
2023/02/27 03:10:43;;;;;;;11.53;10.70;;;20.80;45.30;;;;;;4994053;23;20496;-65
2023/02/27 03:13:14;;;;;;;10.57;10.37;;;20.90;45.30;;;;;;4972758;28;20538;-65
2023/02/27 03:15:47;;;;;;;9.70;9.40;;;20.80;45.20;;;;;;4972268;28;20566;-66
2023/02/27 03:18:19;;;;;;;10.53;10.23;;;20.80;45.20;;;;;;4972246;28;20534;-65
2023/02/27 03:20:57;;;;;;;11.20;10.90;;;20.80;45.20;;;;;;4953579;28;20487;-65
2023/02/27 03:23:30;;;;;;;9.90;9.70;;;20.80;45.20;;;;;;4953483;28;20528;-65
2023/02/27 03:25:59;;;;;;;11.17;10.87;;;20.80;45.20;;;;;;4953084;28;20472;-65
2023/02/27 03:28:31;;;;;;;10.50;10.20;;;20.80;45.20;;;;;;4953361;28;20523;-65
2023/02/27 03:31:07;;;;;;;10.50;10.30;;;20.80;45.20;;;;;;4953432;28;20535;-65
2023/02/27 03:33:38;;;;;;;10.80;10.50;;;20.80;45.20;;;;;;4953182;28;20452;-65
2023/02/27 03:36:12;;;;;;;10.60;10.30;;;20.80;45.30;;;;;;4934025;29;20585;-65
2023/02/27 03:38:43;;;;;;;9.80;9.60;;;20.80;45.20;;;;;;4934141;29;21028;-65
2023/02/27 03:41:19;;;;;;;10.50;10.20;;;20.80;45.20;;;;;;4934217;29;20536;-65
2023/02/27 03:43:51;;;;;;;10.60;10.30;;;20.80;45.20;;;;;;4951332;29;20550;-66
2023/02/27 03:46:22;;;;;;;9.90;9.70;;;20.80;45.20;;;;;;4953071;28;20535;-66
2023/02/27 03:48:49;;;;;;;10.43;10.13;;;20.80;45.20;;;;;;4953250;28;20604;-66
2023/02/27 03:51:19;;;;;;;11.40;11.00;;;20.80;45.20;;;;;;4953173;28;20487;-66
2023/02/27 03:53:50;;;;;;;10.63;10.33;;;20.80;45.30;;;;;;4953018;28;20536;-65
2023/02/27 03:56:24;;;;;;;9.80;9.60;;;20.80;45.20;;;;;;4952949;28;20491;-65
2023/02/27 03:58:51;;;;;;;10.70;10.40;;;20.80;45.20;;;;;;4953076;28;20555;-65
2023/02/27 04:01:19;;;;;;;10.67;10.47;;;20.80;45.10;;;;;;4954678;28;20536;-65
2023/02/27 04:03:53;;;;;;;10.63;10.33;;;20.70;45.00;;;;;;4956761;28;20452;-65
2023/02/27 04:09:11;;;;;;;9.87;9.67;;;20.70;45.10;;;;;;4956531;28;20463;-65
2023/02/27 04:11:52;;;;;;;10.40;10.10;;;20.70;45.10;;;;;;4956422;28;20890;-65
2023/02/27 04:14:38;;;;;;;10.30;10.10;;;20.80;45.70;;;;;;4956485;28;20531;-65
2023/02/27 04:17:22;;;;;;;9.63;9.43;;;20.80;45.20;;;;;;4956121;28;20564;-66
2023/02/27 04:20:09;;;;;;;10.23;10.03;;;20.70;45.20;;;;;;4955189;28;20495;-65
2023/02/27 04:22:38;;;;;;;9.90;9.60;;;20.70;45.20;;;;;;4956226;28;20452;-65
2023/02/27 04:25:19;;;;;;;9.97;9.70;;;20.80;45.60;;;;;;4956029;28;20535;-66
2023/02/27 04:27:56;;;;;;;10.37;10.07;;;20.70;45.20;;;;;;4956250;28;21030;-65
2023/02/27 04:30:28;;;;;;;10.43;10.13;;;20.80;45.30;;;;;;4956173;28;21149;-65
2023/02/27 04:33:00;;;;;;;11.53;11.13;;;20.80;45.30;;;;;;4956412;28;20590;-65
2023/02/27 04:35:33;;;;;;;11.57;11.27;;;20.80;45.30;;;;;;4955768;28;20579;-65
2023/02/27 04:38:06;;;;;;;10.77;10.37;;;20.80;45.30;;;;;;4956216;28;20535;-65
2023/02/27 04:40:36;;;;;;;21.33;11.00;;;20.80;45.30;;;;;;4954983;28;20531;-65
2023/02/27 04:43:07;;;;;;;11.60;11.20;;;20.80;45.30;;;;;;4955993;28;20535;-65
2023/02/27 04:45:37;;;;;;;10.53;10.13;;;20.80;45.90;;;;;;4955866;28;20476;-65
2023/02/27 04:48:08;;;;;;;10.27;10.07;;;20.80;45.30;;;;;;4955653;28;20457;-66
2023/02/27 04:50:39;;;;;;;11.17;10.87;;;20.80;45.30;;;;;;4955900;28;20556;-65
2023/02/27 04:53:14;;;;;;;10.70;10.40;;;20.80;45.20;;;;;;4955935;28;20535;-65
2023/02/27 04:55:47;;;;;;;10.83;10.53;;;20.80;45.20;;;;;;4955565;28;20587;-66
2023/02/27 04:58:19;;;;;;;10.07;9.77;;;20.80;45.20;;;;;;4955381;28;20463;-66
2023/02/27 05:00:53;;;;;;;10.60;10.30;;;20.80;45.20;;;;;;4955796;28;20539;-65
2023/02/27 05:03:24;;;;;;;10.50;10.27;;;20.80;45.20;;;;;;4955767;28;20707;-65
2023/02/27 05:05:55;;;;;;;11.53;11.23;;;20.80;45.20;;;;;;4955528;28;20528;-65
2023/02/27 05:08:29;;;;;;;9.30;9.10;;;20.80;45.20;;;;;;4955148;28;20543;-65
2023/02/27 05:11:02;;;;;;;10.10;9.90;;;20.80;45.20;;;;;;4955591;28;20534;-65
2023/02/27 05:13:34;;;;;;;10.50;10.20;;;20.80;45.10;;;;;;4954518;28;20449;-66
2023/02/27 05:16:09;;;;;;;10.57;10.27;;;20.80;45.20;;;;;;4955280;28;20512;-65
2023/02/27 05:18:36;;;;;;;9.83;9.60;;;20.80;45.10;;;;;;4954335;28;20648;-65
2023/02/27 05:21:15;;;;;;;10.57;10.37;;;20.80;45.10;;;;;;4955400;28;21023;-65
2023/02/27 05:23:50;;;;;;;10.87;10.57;;;20.80;45.10;;;;;;4955304;28;20487;-65
2023/02/27 05:26:20;;;;;;;10.70;10.40;;;20.80;45.10;;;;;;4955067;28;20527;-65
2023/02/27 05:28:53;;;;;;;12.10;11.70;;;20.80;45.10;;;;;;4954834;28;21071;-65
2023/02/27 05:31:26;;;;;;;10.53;10.23;;;20.80;45.20;;;;;;4954866;28;20484;-65
2023/02/27 05:33:59;;;;;;;11.00;10.70;;;20.80;45.20;;;;;;4955122;28;20448;-65
2023/02/27 05:36:31;;;;;;;11.13;10.83;;;20.80;45.20;;;;;;4954847;28;20572;-65
2023/02/27 05:39:01;;;;;;;11.20;10.90;;;20.80;45.30;;;;;;4954935;28;20552;-65
2023/02/27 05:41:33;;;;;;;10.70;10.40;;;20.80;45.30;;;;;;4954649;28;20986;-65
2023/02/27 05:44:05;;;;;;;11.30;11.00;;;20.80;45.30;;;;;;4954758;28;20540;-65
2023/02/27 05:46:34;;;;;;;11.20;10.90;;;20.80;45.30;;;;;;4954690;28;20535;-65
2023/02/27 05:49:07;;;;;;;11.20;10.90;;;20.80;45.30;;;;;;4954811;28;20484;-65
2023/02/27 05:51:36;;;;;;;12.00;11.60;;;20.90;45.40;;;;;;4954798;28;20543;-65
2023/02/27 05:54:10;;;;;;;10.90;10.50;;;20.80;45.30;;;;;;4954558;28;20535;-65
2023/02/27 05:56:39;;;;;;;12.27;11.70;;;20.90;45.50;;;;;;4953909;28;20567;-65
2023/02/27 05:59:13;;;;;;;13.27;12.50;;;20.90;45.60;;;;;;4954687;28;20554;-65
2023/02/27 06:01:40;;;;;;;15.10;14.30;;;20.90;45.80;;;;;;4954636;28;20871;-65
2023/02/27 06:04:07;;;;;;;13.57;12.80;;;20.90;46.30;;;;;;4952980;28;20856;-64
2023/02/27 06:06:35;;;;;;;13.00;12.40;;;20.90;46.80;;;;;;4952819;28;20535;-65
2023/02/27 06:09:02;;;;;;;13.97;13.03;;;20.90;47.20;;;;;;4953647;28;20516;-66
2023/02/27 06:11:29;;;;;;;14.60;13.50;;;20.90;47.30;;;;;;4954389;28;20987;-67
2023/02/27 06:13:56;;;;;;;14.30;13.20;;;21.00;47.30;;;;;;4953889;28;20544;-67
2023/02/27 06:16:24;;;;;;;13.40;12.67;;;21.00;47.20;;;;;;4954023;28;20575;-67
2023/02/27 06:18:51;;;;;;;14.47;13.10;;;21.00;47.10;;;;;;4954243;28;20560;-65
2023/02/27 06:21:18;;;;;;;13.83;13.13;;;21.00;47.00;;;;;;4954283;28;20482;-67
2023/02/27 06:23:45;;;;;;;11.97;11.57;;;21.00;46.90;;;;;;4954050;28;20528;-67
2023/02/27 06:26:13;;;;;;;12.83;12.13;;;21.00;46.80;;;;;;4954014;28;20540;-67
2023/02/27 06:28:40;;;;;;;11.23;10.60;;;21.00;46.70;;;;;;4954115;28;20510;-66
2023/02/27 06:31:07;;;;;;;12.00;11.50;;;21.00;46.60;;;;;;4954134;28;20535;-67
2023/02/27 06:33:35;;;;;;;11.23;10.93;;;21.00;46.50;;;;;;4954008;28;21031;-67
2023/02/27 06:36:02;;;;;;;12.23;11.63;;;21.00;46.50;;;;;;4953935;28;20535;-66
2023/02/27 06:38:28;;;;;;;12.97;12.17;;;21.00;46.40;;;;;;4953896;28;21039;-67
2023/02/27 06:40:55;;;;;;;11.40;11.00;;;21.00;46.40;;;;;;4953857;28;20539;-67
2023/02/27 06:43:22;;;;;;;11.70;11.10;;;21.00;46.30;;;;;;4953952;28;20531;-67
2023/02/27 06:45:50;;;;;;;12.20;11.70;;;21.00;46.30;;;;;;4953648;28;20459;-67
2023/02/27 06:48:16;;;;;;;11.90;11.17;;;21.00;46.20;;;;;;4953790;28;20535;-67
2023/02/27 06:50:45;;;;;;;11.13;10.80;;;21.00;46.20;;;;;;4954030;28;20512;-67
2023/02/27 06:53:11;;;;;;;12.37;11.40;;;21.00;46.10;;;;;;4953727;28;20532;-67
2023/02/27 06:55:40;;;;;;;12.30;11.70;;;21.00;46.10;;;;;;4953614;28;20535;-67
2023/02/27 06:58:07;;;;;;;10.50;10.10;;;21.00;46.00;;;;;;4953630;28;20519;-67
2023/02/27 07:00:34;;;;;;;11.90;11.10;;;21.00;46.00;;;;;;4953534;28;20906;-66
2023/02/27 07:03:03;;;;;;;10.23;9.83;;;21.00;46.00;;;;;;4953738;28;20882;-67
2023/02/27 07:05:30;;;;;;;11.60;11.20;;;21.00;46.00;;;;;;4953743;28;20457;-67
2023/02/27 07:07:58;;;;;;;11.23;10.67;;;21.00;45.90;;;;;;4953621;28;20535;-65
2023/02/27 07:10:25;;;;;;;12.63;12.03;;;21.00;45.90;;;;;;4952714;28;20571;-67
2023/02/27 07:12:52;;;;;;;10.93;10.63;;;21.00;45.90;;;;;;4952650;28;20536;-67
2023/02/27 07:15:21;;;;;;;10.50;10.10;;;21.00;45.80;;;;;;4952606;28;20957;-67
2023/02/27 07:17:47;;;;;;;11.33;10.93;;;21.00;45.80;;;;;;4952546;28;20944;-67
2023/02/27 07:20:14;;;;;;;11.27;10.77;;;21.00;45.80;;;;;;4952636;28;20969;-67
2023/02/27 07:22:41;;;;;;;10.47;10.17;;;21.00;45.80;;;;;;4952522;28;20531;-66
2023/02/27 07:25:10;;;;;;;11.00;10.70;;;21.00;45.80;;;;;;4952520;28;20532;-67
2023/02/27 07:27:37;;;;;;;11.90;11.40;;;21.00;45.80;;;;;;4952557;28;20535;-67
2023/02/27 07:30:05;;;;;;;11.53;10.93;;;21.00;45.80;;;;;;4952540;28;20547;-67
2023/02/27 07:32:32;;;;;;;11.10;10.50;;;21.00;45.70;;;;;;4952679;28;20535;-67
2023/02/27 07:34:58;;;;;;;12.30;11.90;;;21.00;45.80;;;;;;4952350;28;20536;-67
2023/02/27 07:37:25;;;;;;;11.83;11.43;;;21.00;45.70;;;;;;4955730;28;20523;-67
2023/02/27 07:39:52;;;;;;;11.67;11.27;;;21.00;45.70;;;;;;4955951;28;20909;-67
2023/02/27 07:42:20;;;;;;;10.67;10.27;;;21.00;45.70;;;;;;4955871;28;21035;-67
2023/02/27 07:44:47;;;;;;;11.53;11.13;;;21.00;45.70;;;;;;4956013;28;20556;-67
2023/02/27 07:47:16;;;;;;;11.63;11.13;;;21.00;45.60;;;;;;4955834;28;20888;-67
2023/02/27 07:49:43;;;;;;;11.80;11.40;;;21.00;45.70;;;;;;4955779;28;20481;-67
2023/02/27 07:52:10;;;;;;;12.20;11.80;;;21.00;45.70;;;;;;4955782;28;21019;-67
2023/02/27 07:54:37;;;;;;;12.33;11.53;;;21.00;45.70;;;;;;4955457;28;20460;-67
2023/02/27 07:57:04;;;;;;;11.00;10.60;;;21.00;45.60;;;;;;4955688;28;20575;-67
2023/02/27 07:59:32;;;;;;;11.70;11.20;;;21.00;45.60;;;;;;4955875;28;20581;-67
2023/02/27 08:01:59;;;;;;;11.10;10.70;;;21.00;45.60;;;;;;4956008;28;20536;-67
2023/02/27 08:04:26;;;;;;;10.83;10.43;;;21.00;45.60;;;;;;4955998;28;20531;-67
2023/02/27 08:06:53;;;;;;;10.80;10.50;;;21.00;45.60;;;;;;4958987;28;20552;-67
2023/02/27 08:09:20;;;;;;;11.90;11.30;;;21.00;45.70;;;;;;4928394;28;1086448;-67
2023/02/27 08:11:47;;;;;;;11.90;11.50;;;21.00;45.60;;;;;;4966719;28;20492;-67
2023/02/27 08:14:14;;;;;;;12.93;12.33;;;21.00;45.70;;;;;;4966186;28;20480;-67
2023/02/27 08:16:42;;;;;;;11.80;11.40;;;21.00;45.70;;;;;;4966324;28;20512;-67
2023/02/27 08:19:09;;;;;;;11.20;10.80;;;21.00;45.70;;;;;;4966887;28;20473;-66
2023/02/27 08:21:36;;;;;;;11.77;11.40;;;21.00;45.60;;;;;;4963150;28;20441;-66
2023/02/27 08:24:03;;;;;;;11.33;10.93;;;21.00;45.70;;;;;;4956590;28;20885;-66
2023/02/27 08:26:31;;;;;;;11.63;11.23;;;21.00;45.60;;;;;;4956241;28;20535;-67
2023/02/27 08:28:57;;;;;;;11.40;11.10;;;21.00;45.70;;;;;;4956392;28;20476;-67
2023/02/27 08:31:24;;;;;;;11.17;10.87;;;21.00;45.70;;;;;;4956393;28;20527;-67
2023/02/27 08:33:53;;;;;;;11.70;11.30;;;21.00;45.60;;;;;;4957186;28;20528;-67
2023/02/27 08:36:19;;;;;;;11.40;11.00;;;21.00;45.70;;;;;;4956157;28;20797;-67
2023/02/27 08:38:46;;;;;;;11.47;11.13;;;21.00;45.60;;;;;;4955958;28;20568;-67
2023/02/27 08:41:14;;;;;;;12.03;11.63;;;21.00;45.60;;;;;;4956080;28;20535;-67
2023/02/27 08:43:40;;;;;;;11.47;11.07;;;21.00;45.60;;;;;;4956054;28;20480;-67
2023/02/27 08:46:07;;;;;;;10.80;10.50;;;21.00;45.60;;;;;;4955830;28;20641;-66
2023/02/27 08:48:34;;;;;;;11.77;11.37;;;21.00;45.60;;;;;;4955949;28;20552;-67
2023/02/27 08:51:02;;;;;;;11.43;11.10;;;21.00;45.60;;;;;;4955909;28;20472;-67
2023/02/27 08:53:29;;;;;;;11.67;11.23;;;21.00;45.60;;;;;;4955836;28;20637;-67
2023/02/27 08:55:56;;;;;;;11.53;11.23;;;21.00;45.60;;;;;;4955673;28;20456;-67
2023/02/27 08:58:23;;;;;;;11.87;11.37;;;21.00;45.60;;;;;;4955972;28;20571;-67
2023/02/27 09:00:50;;;;;;;10.97;10.47;;;21.00;45.60;;;;;;4955854;28;20535;-66
2023/02/27 09:03:17;;;;;;;12.77;12.37;;;21.00;46.10;;;;;;4955746;28;20452;-67
2023/02/27 09:05:43;;;;;;;12.00;11.60;;;21.00;45.60;;;;;;4955501;28;20540;-67
2023/02/27 09:08:12;;;;;;;13.07;12.67;;;21.00;45.50;;;;;;4955640;28;20528;-67
2023/02/27 09:10:39;;;;;;;11.27;10.97;;;21.00;45.50;;;;;;4988154;23;20578;-62
2023/02/27 09:13:05;;;;;;;10.67;10.40;;;21.00;45.60;;;;;;4967584;28;20870;-61
2023/02/27 09:15:34;;;;;;;10.80;10.50;;;21.00;45.60;;;;;;4974671;28;20543;-60
2023/02/27 09:18:02;;;;;;;11.53;11.23;;;21.00;45.60;;;;;;4974696;28;20488;-62
2023/02/27 09:20:30;;;;;;;10.97;10.57;;;21.00;45.60;;;;;;4974562;28;20542;-61
2023/02/27 09:22:57;;;;;;;11.83;11.50;;;21.00;45.60;;;;;;4974673;28;20498;-61
2023/02/27 09:25:26;;;;;;;11.30;11.00;;;21.00;45.60;;;;;;4974496;28;20455;-61
2023/02/27 09:27:53;;;;;;;10.67;10.37;;;21.00;45.50;;;;;;4974356;28;20538;-61
2023/02/27 09:30:20;;;;;;;11.80;11.40;;;21.00;45.50;;;;;;4974571;28;20554;-62
2023/02/27 09:32:47;;;;;;;11.00;10.70;;;21.00;45.50;;;;;;4974404;28;20547;-60
2023/02/27 09:35:15;;;;;;;11.67;11.30;;;21.00;45.60;;;;;;4974164;28;20538;-63
2023/02/27 09:37:42;;;;;;;11.57;11.20;;;21.00;45.60;;;;;;4974229;28;20484;-61
2023/02/27 09:40:24;;;;;;;10.73;10.43;;;21.00;45.50;;;;;;4974146;28;20559;-61
2023/02/27 09:42:56;;;;;;;11.10;10.80;;;21.00;45.50;;;;;;4974386;28;20466;-61
2023/02/27 09:45:25;;;;;;;10.40;10.17;;;21.00;45.50;;;;;;4974055;28;20448;-62
2023/02/27 09:47:55;;;;;;;11.57;11.17;;;21.00;45.50;;;;;;4974210;28;20540;-61
2023/02/27 09:50:39;;;;;;;11.57;11.17;;;21.00;45.50;;;;;;4973703;28;20550;-61
2023/02/27 09:53:12;;;;;;;10.97;10.67;;;21.00;45.50;;;;;;4974058;28;20534;-61
2023/02/27 09:55:41;;;;;;;12.60;12.10;;;21.00;45.50;;;;;;4973958;28;20448;-61
2023/02/27 09:58:24;;;;;;;11.40;11.10;;;21.00;45.50;;;;;;4973413;28;20509;-62
2023/02/27 10:00:56;;;;;;;10.97;10.60;;;21.00;45.50;;;;;;4973964;28;20551;-61
2023/02/27 10:03:45;;;;;;;11.00;10.70;;;21.00;45.50;;;;;;4973999;28;20534;-61
2023/02/27 10:06:28;;;;;;;10.60;10.40;;;21.00;45.50;;;;;;4973651;28;20535;-60
2023/02/27 10:09:12;;;;;;;11.67;11.27;;;21.00;45.50;;;;;;4972814;28;20571;-61
2023/02/27 10:11:49;;;;;;;11.60;11.20;;;21.00;45.50;;;;;;4973828;28;20530;-61
2023/02/27 10:14:30;;;;;;;11.67;11.27;;;21.00;45.50;;;;;;4973693;28;20530;-61
2023/02/27 10:16:59;;;;;;;10.30;10.00;;;21.00;45.50;;;;;;4973523;28;20796;-62
2023/02/27 10:19:29;;;;;;;10.60;10.27;;;21.00;45.50;;;;;;4973471;28;20472;-61
2023/02/27 10:21:58;;;;;;;10.50;10.20;;;21.00;45.50;;;;;;4973508;28;20542;-61
2023/02/27 10:24:28;;;;;;;11.93;11.60;;;21.00;45.50;;;;;;4973563;28;20547;-60
2023/02/27 10:26:57;;;;;;;10.70;10.40;;;21.00;45.50;;;;;;4973409;28;20901;-63
2023/02/27 10:29:29;;;;;;;11.67;11.37;;;21.00;45.50;;;;;;4973547;28;20547;-62
2023/02/27 10:32:02;;;;;;;10.90;10.60;;;21.00;45.50;;;;;;4973518;28;20995;-62
2023/02/27 10:34:30;;;;;;;11.23;10.93;;;21.00;45.50;;;;;;4973241;28;20546;-60
2023/02/27 10:37:00;;;;;;;10.80;10.53;;;21.10;45.60;;;;;;4973302;28;20506;-61
2023/02/27 10:39:28;;;;;;;11.23;10.93;;;21.10;45.50;;;;;;4973043;28;20551;-61
2023/02/27 10:42:01;;;;;;;10.87;10.47;;;21.10;45.50;;;;;;4973199;28;20454;-61
2023/02/27 10:44:30;;;;;;;11.63;11.13;;;21.10;45.50;;;;;;4973106;28;20531;-61
2023/02/27 10:46:57;;;;;;;11.10;10.80;;;21.10;45.50;;;;;;4973696;28;20543;-62
2023/02/27 10:49:24;;;;;;;11.33;11.03;;;21.10;45.50;;;;;;4973428;28;20555;-62
2023/02/27 10:52:07;;;;;;;11.90;11.50;;;21.10;45.50;;;;;;4973448;28;20555;-61
2023/02/27 10:54:34;;;;;;;10.73;10.43;;;21.10;45.50;;;;;;4973006;28;20444;-60
2023/02/27 10:57:04;;;;;;;11.27;10.97;;;21.10;45.40;;;;;;4973273;28;20534;-61
2023/02/27 10:59:35;;;;;;;11.30;11.00;;;21.10;45.40;;;;;;4973034;28;20487;-60
2023/02/27 11:02:06;;;;;;;10.97;10.67;;;21.10;45.50;;;;;;4973013;28;20534;-62
2023/02/27 11:04:36;;;;;;;11.30;10.80;;;21.10;45.40;;;;;;4972914;28;20534;-61
2023/02/27 11:07:07;;;;;;;10.73;10.53;;;21.10;45.40;;;;;;4973006;28;20885;-62
2023/02/27 11:09:36;;;;;;;11.20;10.90;;;21.10;45.40;;;;;;4972291;28;20570;-62
2023/02/27 11:12:19;;;;;;;10.80;10.43;;;21.10;45.40;;;;;;4972427;28;21022;-62
2023/02/27 11:14:53;;;;;;;10.67;10.37;;;21.10;45.40;;;;;;4972753;28;20526;-61
2023/02/27 11:17:27;;;;;;;11.17;10.87;;;21.10;45.40;;;;;;4972753;28;20526;-61
2023/02/27 11:19:54;;;;;;;10.50;10.20;;;21.10;45.30;;;;;;4972681;28;20554;-61
2023/02/27 11:22:23;;;;;;;11.20;10.90;;;21.10;45.40;;;;;;4972707;28;20535;-62
2023/02/27 11:24:50;;;;;;;10.90;10.60;;;21.10;45.30;;;;;;4972674;28;20485;-59
2023/02/27 11:27:21;;;;;;;11.70;11.40;;;21.10;45.30;;;;;;4972715;28;20875;-60
2023/02/27 11:29:59;;;;;;;11.40;11.00;;;21.10;45.30;;;;;;4972647;28;20464;-62
2023/02/27 11:32:31;;;;;;;11.10;10.70;;;21.10;45.30;;;;;;4972651;28;20506;-60
2023/02/27 11:34:58;;;;;;;11.30;10.97;;;21.10;45.30;;;;;;4972558;28;20454;-61
2023/02/27 11:37:30;;;;;;;10.80;10.50;;;21.20;45.30;;;;;;4972489;28;20538;-59
2023/02/27 11:40:05;;;;;;;11.10;10.80;;;21.20;45.90;;;;;;4972592;28;20506;-62
2023/02/27 11:42:34;;;;;;;10.80;10.40;;;21.10;45.30;;;;;;4972631;28;20447;-61
2023/02/27 11:45:07;;;;;;;10.30;10.10;;;21.10;45.20;;;;;;4972466;28;20535;-61
2023/02/27 11:47:37;;;;;;;10.70;10.50;;;21.20;45.30;;;;;;4972453;28;20503;-61
2023/02/27 11:50:35;;;;;;;10.70;10.40;;;21.20;45.30;;;;;;4972469;28;20571;-61
2023/02/27 11:53:25;;;;;;;11.07;10.87;;;21.20;45.20;;;;;;4972538;28;20542;-59
2023/02/27 11:55:54;;;;;;;11.10;10.80;;;21.20;45.20;;;;;;4972392;28;20546;-61
2023/02/27 11:58:25;;;;;;;10.80;10.50;;;21.20;45.20;;;;;;4972442;28;20494;-61
2023/02/27 12:01:00;;;;;;;11.80;11.40;;;21.20;45.20;;;;;;4972372;28;20983;-62
2023/02/27 12:03:34;;;;;;;10.67;10.37;;;21.20;45.20;;;;;;4972432;28;20534;-62
2023/02/27 12:06:04;;;;;;;10.50;10.23;;;21.20;45.20;;;;;;4972144;28;20538;-61
2023/02/27 12:08:36;;;;;;;10.77;10.47;;;21.20;45.10;;;;;;4972301;28;21034;-62
2023/02/27 12:11:07;;;;;;;11.03;10.77;;;21.20;45.10;;;;;;4972435;28;20440;-60
2023/02/27 12:13:39;;;;;;;11.13;10.83;;;21.20;45.60;;;;;;4972425;28;20487;-61
2023/02/27 12:16:16;;;;;;;11.00;10.60;;;21.20;45.00;;;;;;4972191;28;20463;-61
2023/02/27 12:18:48;;;;;;;10.40;10.17;;;21.20;45.00;;;;;;4972175;28;20934;-60
2023/02/27 12:21:20;;;;;;;10.60;10.40;;;21.20;45.00;;;;;;4972479;28;20542;-61
2023/02/27 12:23:50;;;;;;;11.33;10.97;;;21.20;44.90;;;;;;4975854;28;20535;-60
2023/02/27 12:26:22;;;;;;;11.13;10.83;;;21.20;44.90;;;;;;4975584;28;20479;-62
2023/02/27 12:28:55;;;;;;;11.07;10.73;;;21.20;44.90;;;;;;4975593;28;20530;-62
2023/02/27 12:31:41;;;;;;;10.93;10.63;;;21.20;44.90;;;;;;4975503;28;20540;-62
2023/02/27 12:34:18;;;;;;;11.40;10.90;;;21.30;45.00;;;;;;4975546;28;20456;-62
2023/02/27 12:36:47;;;;;;;10.90;10.60;;;21.30;45.00;;;;;;4975258;28;20447;-60
2023/02/27 12:39:18;;;;;;;11.13;10.83;;;21.30;44.90;;;;;;4975508;28;20530;-61
2023/02/27 12:42:01;;;;;;;10.80;10.60;;;21.30;44.90;;;;;;4975479;28;20539;-62
2023/02/27 12:44:40;;;;;;;11.23;10.93;;;21.20;44.90;;;;;;4975397;28;20608;-61
2023/02/27 12:47:19;;;;;;;11.10;10.83;;;21.30;44.90;;;;;;4975336;28;20455;-62
2023/02/27 12:49:53;;;;;;;10.33;10.13;;;21.20;44.80;;;;;;4975963;28;20554;-62
2023/02/27 12:52:35;;;;;;;11.27;10.97;;;21.30;44.90;;;;;;4975293;28;20447;-61